createdAt,value
2022-11-05T00:02:48.261Z,96863.72
2022-11-05T00:05:49.159Z,96867.34
2022-11-05T00:08:35.058Z,96869.69
2022-11-05T00:11:03.503Z,96869.16
2022-11-05T00:13:49.918Z,96876.09
2022-11-05T00:16:36.270Z,96875.56
2022-11-05T00:19:07.458Z,96888.59
2022-11-05T00:21:54.835Z,96872.91
2022-11-05T00:24:41.272Z,96888.47
2022-11-05T00:27:10.247Z,96890.56
2022-11-05T00:29:38.763Z,96894.72
2022-11-05T00:32:08.736Z,96896.97
2022-11-05T00:34:37.202Z,96909.19
2022-11-05T00:37:05.748Z,96902.25
2022-11-05T00:39:34.323Z,96906.00
2022-11-05T00:42:20.236Z,96911.56
2022-11-05T00:45:01.876Z,96909.47
2022-11-05T00:47:50.530Z,96910.31
2022-11-05T00:50:19.677Z,96911.41
2022-11-05T00:52:57.975Z,96917.81
2022-11-05T00:55:34.176Z,96923.09
2022-11-05T00:58:04.319Z,96932.53
2022-11-05T01:00:33.493Z,96935.31
2022-11-05T01:03:04.971Z,96938.78
2022-11-05T01:05:34.873Z,96944.22
2022-11-05T01:08:03.347Z,96939.63
2022-11-05T01:10:31.985Z,96941.97
2022-11-05T01:13:00.442Z,96946.72
2022-11-05T01:15:28.888Z,96949.22
2022-11-05T01:17:57.392Z,96947.53
2022-11-05T01:20:27.822Z,96949.34
2022-11-05T01:22:56.289Z,96950.31
2022-11-05T01:25:24.843Z,96947.53
2022-11-05T01:27:53.301Z,96952.13
2022-11-05T01:30:21.933Z,96954.78
2022-11-05T01:32:50.544Z,96957.56
2022-11-05T01:35:19.481Z,96962.81
2022-11-05T01:40:53.148Z,96955.19
2022-11-05T01:43:23.453Z,96965.47
2022-11-05T01:46:00.853Z,96967.97
2022-11-05T01:48:31.419Z,96973.53
2022-11-05T01:51:02.098Z,96970.88
2022-11-05T01:53:32.246Z,96966.44
2022-11-05T01:56:05.306Z,96971.88
2022-11-05T01:58:35.791Z,96969.38
2022-11-05T02:01:04.339Z,96961.72
2022-11-05T02:03:33.321Z,96962.56
2022-11-05T02:06:02.462Z,96968.53
2022-11-05T02:08:43.064Z,96962.56
2022-11-05T02:11:14.519Z,96976.72
2022-11-05T02:13:42.943Z,96975.63
2022-11-05T02:16:18.392Z,96982.41
2022-11-05T02:18:54.553Z,96982.56
2022-11-05T02:21:52.065Z,96981.72
2022-11-05T02:24:55.739Z,96983.53
2022-11-05T02:27:38.827Z,96982.28
2022-11-05T02:30:11.139Z,96975.06
2022-11-05T02:32:59.431Z,96966.31
2022-11-05T02:35:36.953Z,96967.00
2022-11-05T02:38:09.479Z,96967.97
2022-11-05T02:40:44.530Z,96968.69
2022-11-05T02:43:17.001Z,96972.28
2022-11-05T02:45:50.457Z,96971.59
2022-11-05T02:48:24.795Z,96967.44
2022-11-05T02:50:57.226Z,96968.13
2022-11-05T02:53:30.225Z,96967.28
2022-11-05T02:56:01.409Z,96962.84
2022-11-05T02:58:30.625Z,96972.56
2022-11-05T03:01:00.435Z,96966.75
2022-11-05T03:03:33.125Z,96966.75
2022-11-05T03:06:20.673Z,96959.25
2022-11-05T03:09:02.135Z,96964.09
2022-11-05T03:11:32.156Z,96969.53
2022-11-05T03:14:03.947Z,96965.91
2022-11-05T03:16:37.671Z,96980.63
2022-11-05T03:19:09.992Z,96967.56
2022-11-05T03:21:43.005Z,96978.41
2022-11-05T03:24:15.523Z,96977.59
2022-11-05T03:26:49.061Z,96977.59
2022-11-05T03:29:21.109Z,96984.53
2022-11-05T03:31:50.406Z,96985.22
2022-11-05T03:34:23.135Z,96987.16
2022-11-05T03:36:54.259Z,96995.34
2022-11-05T03:39:29.680Z,97009.25
2022-11-05T03:41:58.990Z,97011.06
2022-11-05T03:44:30.554Z,97008.41
2022-11-05T03:47:03.590Z,97016.19
2022-11-05T03:49:37.127Z,97016.75
2022-11-05T03:52:08.218Z,97023.81
2022-11-05T03:54:37.098Z,97035.06
2022-11-05T03:57:08.551Z,97033.41
2022-11-05T03:59:41.037Z,97038.69
2022-11-05T04:02:10.184Z,97034.09
2022-11-05T04:04:40.772Z,97046.59
2022-11-05T04:07:27.614Z,97041.31
2022-11-05T04:10:13.639Z,97048.53
2022-11-05T04:12:59.571Z,97043.97
2022-11-05T04:15:29.540Z,97044.78
2022-11-05T04:17:58.970Z,97048.25
2022-11-05T04:20:46.257Z,97055.06
2022-11-05T04:23:32.342Z,97055.06
2022-11-05T04:26:00.700Z,97060.63
2022-11-05T04:28:49.268Z,97056.19
2022-11-05T04:31:16.737Z,97069.38
2022-11-05T04:33:45.217Z,97069.50
2022-11-05T04:36:15.031Z,97063.69
2022-11-05T04:38:43.375Z,97079.09
2022-11-05T04:41:16.229Z,97074.94
2022-11-05T04:43:45.120Z,97080.91
2022-11-05T04:46:13.545Z,97072.28
2022-11-05T04:48:42.187Z,97078.41
2022-11-05T04:51:10.680Z,97080.06
2022-11-05T04:53:40.467Z,97067.00
2022-11-05T04:56:13.216Z,97078.41
2022-11-05T04:58:42.001Z,97067.56
2022-11-05T05:01:13.793Z,97082.84
2022-11-05T05:03:42.442Z,97082.00
2022-11-05T05:06:11.790Z,97074.38
2022-11-05T05:08:41.483Z,97082.84
2022-11-05T05:11:12.323Z,97077.84
2022-11-05T05:13:41.077Z,97075.06
2022-11-05T05:16:11.967Z,97080.47
2022-11-05T05:18:45.141Z,97093.66
2022-11-05T05:21:28.702Z,97083.13
2022-11-05T05:23:58.642Z,97093.66
2022-11-05T05:26:27.170Z,97089.22
2022-11-05T05:28:55.924Z,97095.63
2022-11-05T05:31:24.307Z,97100.88
2022-11-05T05:33:54.451Z,97108.81
2022-11-05T05:36:23.026Z,97114.09
2022-11-05T05:38:51.436Z,97108.81
2022-11-05T05:41:21.339Z,97122.13
2022-11-05T05:43:50.137Z,97122.81
2022-11-05T05:46:19.550Z,97120.06
2022-11-05T05:48:50.729Z,97124.63
2022-11-05T05:51:19.729Z,97120.31
2022-11-05T05:53:48.206Z,97124.63
2022-11-05T05:56:19.327Z,97123.66
2022-11-05T05:58:49.278Z,97127.28
2022-11-05T06:01:19.551Z,97136.16
2022-11-05T06:03:49.111Z,97132.69
2022-11-05T06:06:20.884Z,97147.53
2022-11-05T06:08:49.707Z,97146.72
2022-11-05T06:11:21.015Z,97145.03
2022-11-05T06:13:50.961Z,97147.53
2022-11-05T06:16:20.319Z,97139.09
2022-11-05T06:18:49.131Z,97148.13
2022-11-05T06:21:18.919Z,97152.44
2022-11-05T06:23:49.080Z,97164.91
2022-11-05T06:26:19.298Z,97160.34
2022-11-05T06:28:47.728Z,97168.78
2022-11-05T06:31:17.474Z,97181.31
2022-11-05T06:33:47.233Z,97168.13
2022-11-05T06:36:16.849Z,97172.56
2022-11-05T06:38:45.490Z,97175.06
2022-11-05T06:41:14.305Z,97177.00
2022-11-05T06:43:43.142Z,97176.88
2022-11-05T06:46:12.390Z,97182.13
2022-11-05T06:48:42.239Z,97185.63
2022-11-05T06:51:10.851Z,97196.97
2022-11-05T06:53:39.526Z,97198.50
2022-11-05T06:56:08.885Z,97193.94
2022-11-05T06:58:37.390Z,97203.66
2022-11-05T07:01:09.025Z,97207.69
2022-11-05T07:03:38.106Z,97216.56
2022-11-05T07:06:09.054Z,97216.44
2022-11-05T07:08:38.660Z,97223.50
2022-11-05T07:11:07.441Z,97228.63
2022-11-05T07:13:36.300Z,97224.19
2022-11-05T07:16:05.127Z,97233.22
2022-11-05T07:18:33.562Z,97241.81
2022-11-05T07:21:02.049Z,97248.91
2022-11-05T07:23:31.898Z,97247.91
2022-11-05T07:26:00.747Z,97255.84
2022-11-05T07:28:29.238Z,97257.94
2022-11-05T07:30:59.681Z,97261.28
2022-11-05T07:33:32.356Z,97263.75
2022-11-05T07:36:03.969Z,97264.75
2022-11-05T07:38:36.662Z,97268.34
2022-11-05T07:41:05.318Z,97269.47
2022-11-05T07:43:33.895Z,97271.00
2022-11-05T07:46:02.330Z,97270.44
2022-11-05T07:48:30.969Z,97283.22
2022-11-05T07:50:59.467Z,97275.56
2022-11-05T07:53:28.035Z,97280.72
2022-11-05T07:55:59.023Z,97283.34
2022-11-05T07:58:27.722Z,97282.22
2022-11-05T08:00:57.829Z,97278.91
2022-11-05T08:03:28.367Z,97288.34
2022-11-05T08:06:00.260Z,97289.31
2022-11-05T08:08:29.214Z,97294.44
2022-11-05T08:11:05.113Z,97296.13
2022-11-05T08:13:33.847Z,97296.25
2022-11-05T08:16:02.606Z,97306.66
2022-11-05T08:18:32.555Z,97298.03
2022-11-05T08:21:02.435Z,97306.66
2022-11-05T08:23:32.225Z,97305.13
2022-11-05T08:26:05.370Z,97308.91
2022-11-05T08:28:33.923Z,97301.53
2022-11-05T08:31:02.397Z,97309.59
2022-11-05T08:33:31.491Z,97298.03
2022-11-05T08:36:03.505Z,97295.28
2022-11-05T08:38:32.208Z,97297.09
2022-11-05T08:41:00.522Z,97300.56
2022-11-05T08:43:30.389Z,97302.09
2022-11-05T08:46:01.076Z,97303.91
2022-11-05T08:48:29.468Z,97309.88
2022-11-05T08:51:01.379Z,97287.22
2022-11-05T08:53:29.857Z,97299.44
2022-11-05T08:56:01.239Z,97308.34
2022-11-05T08:58:31.003Z,97311.69
2022-11-05T09:01:04.682Z,97302.78
2022-11-05T09:03:33.911Z,97315.97
2022-11-05T09:06:02.482Z,97322.09
2022-11-05T09:08:31.051Z,97324.75
2022-11-05T09:10:59.665Z,97323.91
2022-11-05T09:13:28.169Z,97323.78
2022-11-05T09:15:59.918Z,97328.06
2022-11-05T09:18:28.607Z,97323.63
2022-11-05T09:20:57.048Z,97331.56
2022-11-05T09:23:25.708Z,97327.25
2022-11-05T09:25:54.183Z,97331.56
2022-11-05T09:28:24.629Z,97323.38
2022-11-05T09:30:54.110Z,97320.47
2022-11-05T09:33:26.084Z,97322.84
2022-11-05T09:36:05.037Z,97325.66
2022-11-05T09:38:34.808Z,97320.38
2022-11-05T09:41:08.344Z,97330.94
2022-11-05T09:43:39.600Z,97326.50
2022-11-05T09:46:11.656Z,97330.41
2022-11-05T09:48:42.147Z,97332.91
2022-11-05T09:51:12.590Z,97329.44
2022-11-05T09:53:42.050Z,97331.38
2022-11-05T09:56:22.898Z,97323.31
2022-11-05T09:58:54.501Z,97333.75
2022-11-05T10:01:25.227Z,97334.44
2022-11-05T10:03:59.429Z,97342.50
2022-11-05T10:06:28.843Z,97345.53
2022-11-05T10:09:03.401Z,97354.56
2022-11-05T10:11:36.592Z,97350.38
2022-11-05T10:14:09.761Z,97362.34
2022-11-05T10:16:41.523Z,97354.41
2022-11-05T10:19:22.096Z,97361.50
2022-11-05T10:22:06.204Z,97363.44
2022-11-05T10:24:35.468Z,97354.69
2022-11-05T10:27:04.724Z,97359.81
2022-11-05T10:29:35.746Z,97368.44
2022-11-05T10:32:07.246Z,97364.41
2022-11-05T10:34:38.613Z,97363.44
2022-11-05T10:37:07.246Z,97363.69
2022-11-05T10:39:36.250Z,97365.09
2022-11-05T10:42:30.859Z,97370.97
2022-11-05T10:45:04.973Z,97365.69
2022-11-05T10:47:46.382Z,97372.50
2022-11-05T10:50:18.112Z,97362.06
2022-11-05T10:52:57.327Z,97371.53
2022-11-05T10:55:29.029Z,97369.84
2022-11-05T10:58:09.242Z,97375.13
2022-11-05T11:00:37.948Z,97378.63
2022-11-05T11:03:29.278Z,97373.19
2022-11-05T11:06:03.866Z,97370.44
2022-11-05T11:08:34.755Z,97379.06
2022-11-05T11:11:05.122Z,97379.31
2022-11-05T11:13:50.977Z,97387.09
2022-11-05T11:16:21.778Z,97372.09
2022-11-05T11:18:54.573Z,97377.38
2022-11-05T11:21:24.919Z,97373.78
2022-11-05T11:23:57.775Z,97378.06
2022-11-05T11:26:28.721Z,97379.88
2022-11-05T11:28:59.386Z,97376.41
2022-11-05T11:31:29.754Z,97380.84
2022-11-05T11:34:01.040Z,97391.28
2022-11-05T11:36:36.125Z,97382.53
2022-11-05T11:39:06.153Z,97376.69
2022-11-05T11:41:37.048Z,97387.22
2022-11-05T11:44:08.854Z,97384.59
2022-11-05T11:46:37.286Z,97381.13
2022-11-05T11:49:07.271Z,97398.63
2022-11-05T11:51:40.660Z,97391.81
2022-11-05T11:54:20.518Z,97400.69
2022-11-05T11:56:49.554Z,97398.06
2022-11-05T11:59:46.820Z,97400.69
2022-11-05T12:02:44.750Z,97409.31
2022-11-05T12:05:28.110Z,97408.34
2022-11-05T12:08:00.848Z,97395.84
2022-11-05T12:10:45.906Z,97404.75
2022-11-05T12:13:50.408Z,97398.38
2022-11-05T12:16:26.338Z,97395.72
2022-11-05T12:19:03.332Z,97400.03
2022-11-05T12:21:52.097Z,97399.91
2022-11-05T12:24:47.014Z,97399.78
2022-11-05T12:27:24.170Z,97406.72
2022-11-05T12:29:59.052Z,97402.16
2022-11-05T12:32:49.208Z,97394.34
2022-11-05T12:35:26.362Z,97409.09
2022-11-05T12:38:07.319Z,97406.19
2022-11-05T12:40:47.954Z,97405.34
2022-11-05T12:43:31.177Z,97405.63
2022-11-05T12:46:03.932Z,97403.81
2022-11-05T12:48:48.057Z,97400.78
2022-11-05T12:51:27.904Z,97406.06
2022-11-05T12:54:06.244Z,97407.72
2022-11-05T12:56:39.862Z,97404.25
2022-11-05T12:59:14.261Z,97409.41
2022-11-05T13:01:46.019Z,97404.13
2022-11-05T13:04:19.070Z,97402.44
2022-11-05T13:06:51.017Z,97408.69
2022-11-05T13:09:24.309Z,97408.56
2022-11-05T13:11:55.463Z,97414.69
2022-11-05T13:14:27.833Z,97413.84
2022-11-05T13:16:58.994Z,97419.13
2022-11-05T13:19:29.852Z,97413.72
2022-11-05T13:22:02.290Z,97418.16
2022-11-05T13:24:36.014Z,97417.31
2022-11-05T13:27:14.542Z,97414.56
2022-11-05T13:29:49.389Z,97416.94
2022-11-05T13:32:26.884Z,97422.91
2022-11-05T13:34:56.560Z,97411.38
2022-11-05T13:37:44.842Z,97411.38
2022-11-05T13:40:15.958Z,97401.22
2022-11-05T13:43:06.710Z,97413.06
2022-11-05T13:45:53.849Z,97422.66
2022-11-05T13:49:03.777Z,97418.34
2022-11-05T13:51:48.238Z,97425.41
2022-11-05T13:54:53.407Z,97422.91
2022-11-05T13:57:38.430Z,97419.69
2022-11-05T14:00:13.027Z,97431.53
2022-11-05T14:02:44.021Z,97427.22
2022-11-05T14:05:27.367Z,97431.41
2022-11-05T14:07:56.120Z,97430.56
2022-11-05T14:10:33.318Z,97429.72
2022-11-05T14:13:07.230Z,97435.00
2022-11-05T14:15:37.544Z,97432.50
2022-11-05T14:18:07.379Z,97437.78
2022-11-05T14:20:45.097Z,97440.56
2022-11-05T14:23:50.212Z,97444.16
2022-11-05T14:26:28.270Z,97449.44
2022-11-05T14:29:39.218Z,97453.31
2022-11-05T14:32:27.560Z,97455.00
2022-11-05T14:34:58.207Z,97457.50
2022-11-05T14:37:37.418Z,97452.22
2022-11-05T14:40:30.296Z,97455.84
2022-11-05T14:43:01.530Z,97450.56
2022-11-05T14:45:31.912Z,97459.44
2022-11-05T14:48:03.169Z,97454.28
2022-11-05T14:50:36.275Z,97472.66
2022-11-05T14:53:44.636Z,97467.50
2022-11-05T14:56:44.266Z,97468.34
2022-11-05T14:59:58.468Z,97478.06
2022-11-05T15:02:29.205Z,97484.19
2022-11-05T15:05:38.325Z,97480.69
2022-11-05T15:08:30.290Z,97488.63
2022-11-05T15:11:05.659Z,97482.50
2022-11-05T15:13:37.984Z,97485.28
2022-11-05T15:16:08.406Z,97484.31
2022-11-05T15:18:41.688Z,97482.75
2022-11-05T15:21:16.073Z,97491.38
2022-11-05T15:23:45.641Z,97490.56
2022-11-05T15:26:19.507Z,97496.66
2022-11-05T15:28:50.053Z,97495.84
2022-11-05T15:31:27.657Z,97499.44
2022-11-05T15:34:17.557Z,97511.69
2022-11-05T15:36:56.961Z,97504.72
2022-11-05T15:39:34.936Z,97510.00
2022-11-05T15:42:06.828Z,97518.91
2022-11-05T15:44:39.789Z,97515.28
2022-11-05T15:47:14.243Z,97516.38
2022-11-05T15:49:44.547Z,97519.84
2022-11-05T15:52:19.298Z,97514.56
2022-11-05T15:54:48.288Z,97521.66
2022-11-05T15:57:27.492Z,97522.38
2022-11-05T15:59:57.242Z,97523.34
2022-11-05T16:02:31.318Z,97524.31
2022-11-05T16:05:01.220Z,97526.09
2022-11-05T16:07:31.373Z,97525.28
2022-11-05T16:10:02.079Z,97530.41
2022-11-05T16:12:36.037Z,97533.19
2022-11-05T16:15:20.558Z,97527.06
2022-11-05T16:17:52.437Z,97522.75
2022-11-05T16:20:27.743Z,97531.50
2022-11-05T16:22:59.623Z,97535.00
2022-11-05T16:25:37.260Z,97533.31
2022-11-05T16:28:08.631Z,97535.00
2022-11-05T16:30:37.381Z,97538.59
2022-11-05T16:33:08.273Z,97540.28
2022-11-05T16:35:40.939Z,97538.59
2022-11-05T16:38:13.616Z,97544.72
2022-11-05T16:40:42.689Z,97544.84
2022-11-05T16:43:19.358Z,97548.31
2022-11-05T16:45:48.337Z,97541.38
2022-11-05T16:48:17.636Z,97544.13
2022-11-05T16:50:46.753Z,97554.56
2022-11-05T16:53:17.023Z,97553.59
2022-11-05T16:55:46.381Z,97571.25
2022-11-05T16:58:20.816Z,97558.31
2022-11-05T17:00:50.499Z,97569.56
2022-11-05T17:03:19.584Z,97563.47
2022-11-05T17:05:48.621Z,97566.94
2022-11-05T17:08:18.849Z,97568.88
2022-11-05T17:10:47.722Z,97573.31
2022-11-05T17:13:17.494Z,97572.47
2022-11-05T17:15:48.369Z,97575.94
2022-11-05T17:18:19.064Z,97582.91
2022-11-05T17:20:49.562Z,97589.16
2022-11-05T17:23:21.024Z,97594.69
2022-11-05T17:25:51.396Z,97596.50
2022-11-05T17:28:20.732Z,97593.00
2022-11-05T17:30:52.938Z,97606.09
2022-11-05T17:33:23.233Z,97594.69
2022-11-05T17:35:54.057Z,97605.13
2022-11-05T17:38:25.878Z,97606.09
2022-11-05T17:40:55.174Z,97602.72
2022-11-05T17:43:24.350Z,97605.75
2022-11-05T17:45:53.787Z,97619.66
2022-11-05T17:48:22.843Z,97622.19
2022-11-05T17:50:52.155Z,97616.91
2022-11-05T17:53:21.239Z,97623.13
2022-11-05T17:55:52.945Z,97623.00
2022-11-05T17:58:22.523Z,97626.50
2022-11-05T18:00:51.116Z,97621.34
2022-11-05T18:03:19.693Z,97629.97
2022-11-05T18:05:48.127Z,97631.06
2022-11-05T18:08:16.674Z,97630.09
2022-11-05T18:10:45.706Z,97631.06
2022-11-05T18:13:15.849Z,97631.91
2022-11-05T18:15:44.619Z,97637.31
2022-11-05T18:18:13.157Z,97644.50
2022-11-05T18:20:43.094Z,97648.69
2022-11-05T18:23:11.980Z,97640.91
2022-11-05T18:25:41.520Z,97634.78
2022-11-05T18:28:10.774Z,97639.09
2022-11-05T18:30:40.949Z,97634.66
2022-11-05T18:33:10.050Z,97645.22
2022-11-05T18:35:42.149Z,97635.50
2022-11-05T18:38:10.743Z,97641.88
2022-11-05T18:40:39.385Z,97642.72
2022-11-05T18:43:07.894Z,97634.78
2022-11-05T18:45:37.197Z,97631.31
2022-11-05T18:48:07.774Z,97638.28
2022-11-05T18:50:36.253Z,97630.34
2022-11-05T18:53:04.766Z,97636.59
2022-11-05T18:55:36.335Z,97638.28
2022-11-05T18:58:05.083Z,97633.50
2022-11-05T19:00:33.699Z,97638.41
2022-11-05T19:03:02.433Z,97649.78
2022-11-05T19:05:35.696Z,97656.16
2022-11-05T19:08:05.872Z,97656.16
2022-11-05T19:10:34.399Z,97657.97
2022-11-05T19:13:02.879Z,97647.66
2022-11-05T19:15:31.430Z,97649.91
2022-11-05T19:17:59.931Z,97663.13
2022-11-05T19:20:31.304Z,97664.91
2022-11-05T19:23:03.533Z,97662.41
2022-11-05T19:25:32.095Z,97662.41
2022-11-05T19:28:01.737Z,97661.56
2022-11-05T19:30:30.405Z,97664.19
2022-11-05T19:32:58.923Z,97664.31
2022-11-05T19:35:27.220Z,97671.41
2022-11-05T19:37:56.142Z,97674.03
2022-11-05T19:40:25.865Z,97676.69
2022-11-05T19:42:54.271Z,97681.00
2022-11-05T19:45:43.523Z,97677.53
2022-11-05T19:48:16.171Z,97680.28
2022-11-05T19:50:47.394Z,97676.69
2022-11-05T19:53:15.722Z,97672.38
2022-11-05T19:55:45.971Z,97665.53
2022-11-05T19:58:14.944Z,97668.06
2022-11-05T20:00:43.861Z,97663.63
2022-11-05T20:03:14.237Z,97669.72
2022-11-05T20:05:42.584Z,97671.41
2022-11-05T20:08:11.297Z,97660.13
2022-11-05T20:10:39.821Z,97666.38
2022-11-05T20:13:09.574Z,97669.84
2022-11-05T20:15:38.506Z,97677.06
2022-11-05T20:18:08.192Z,97676.94
2022-11-05T20:20:36.560Z,97675.38
2022-11-05T20:23:04.994Z,97681.75
2022-11-05T20:25:33.317Z,97678.16
2022-11-05T20:28:01.682Z,97686.19
2022-11-05T20:30:31.497Z,97673.97
2022-11-05T20:32:59.873Z,97683.78
2022-11-05T20:35:30.716Z,97681.03
2022-11-05T20:37:59.168Z,97690.03
2022-11-05T20:40:27.980Z,97690.03
2022-11-05T20:42:56.402Z,97686.69
2022-11-05T20:45:24.774Z,97687.66
2022-11-05T20:47:54.530Z,97685.25
2022-11-05T20:50:22.924Z,97686.81
2022-11-05T20:52:51.258Z,97695.31
2022-11-05T20:55:19.540Z,97701.44
2022-11-05T20:57:50.060Z,97699.75
2022-11-05T21:00:19.256Z,97701.69
2022-11-05T21:02:47.783Z,97696.53
2022-11-05T21:05:17.621Z,97696.41
2022-11-05T21:07:45.939Z,97697.13
2022-11-05T21:10:14.336Z,97704.31
2022-11-05T21:12:42.850Z,97705.16
2022-11-05T21:15:12.073Z,97707.91
2022-11-05T21:17:40.567Z,97714.88
2022-11-05T21:20:09.835Z,97706.00
2022-11-05T21:22:43.195Z,97698.31
2022-11-05T21:25:12.118Z,97697.25
2022-11-05T21:27:43.565Z,97704.31
2022-11-05T21:30:12.955Z,97704.56
2022-11-05T21:32:41.350Z,97709.84
2022-11-05T21:35:10.036Z,97701.94
2022-11-05T21:37:39.686Z,97700.13
2022-11-05T21:40:09.208Z,97700.25
2022-11-05T21:42:37.522Z,97703.84
2022-11-05T21:45:06.840Z,97694.13
2022-11-05T21:47:35.795Z,97699.53
2022-11-05T21:50:04.661Z,97701.34
2022-11-05T21:52:50.528Z,97708.41
2022-11-05T21:55:38.241Z,97705.66
2022-11-05T21:58:33.067Z,97713.69
2022-11-05T22:01:02.133Z,97712.97
2022-11-05T22:03:30.938Z,97718.13
2022-11-05T22:05:59.783Z,97719.91
2022-11-05T22:08:30.245Z,97721.00
2022-11-05T22:10:59.981Z,97713.81
2022-11-05T22:13:28.474Z,97714.66
2022-11-05T22:15:56.881Z,97707.69
2022-11-05T22:18:25.387Z,97708.53
2022-11-05T22:20:53.797Z,97712.13
2022-11-05T22:23:22.212Z,97706.84
2022-11-05T22:25:50.734Z,97710.44
2022-11-05T22:28:21.739Z,97705.69
2022-11-05T22:30:50.254Z,97704.97
2022-11-05T22:33:18.619Z,97719.00
2022-11-05T22:35:47.118Z,97719.84
2022-11-05T22:38:15.498Z,97709.28
2022-11-05T22:40:44.141Z,97719.00
2022-11-05T22:43:16.129Z,97709.16
2022-11-05T22:45:46.123Z,97712.66
2022-11-05T22:48:15.328Z,97714.31
2022-11-05T22:50:43.986Z,97710.13
2022-11-05T22:53:12.338Z,97700.53
2022-11-05T22:55:40.862Z,97699.59
2022-11-05T22:58:09.624Z,97704.97
2022-11-05T23:00:38.896Z,97702.47
2022-11-05T23:03:08.792Z,97695.38
2022-11-05T23:05:37.726Z,97690.94
2022-11-05T23:08:24.160Z,97692.88
2022-11-05T23:11:11.110Z,97699.81
2022-11-05T23:13:39.590Z,97698.16
2022-11-05T23:16:26.038Z,97711.34
2022-11-05T23:19:13.485Z,97712.19
2022-11-05T23:22:00.127Z,97707.84
2022-11-05T23:24:28.489Z,97705.34
2022-11-05T23:26:58.129Z,97701.75
2022-11-05T23:29:27.930Z,97712.28
2022-11-05T23:32:11.811Z,97711.59
2022-11-05T23:34:41.750Z,97709.91
2022-11-05T23:37:27.784Z,97707.25
2022-11-05T23:39:56.118Z,97706.44
2022-11-05T23:42:42.283Z,97715.28
2022-11-05T23:45:29.652Z,97709.91
2022-11-05T23:48:16.081Z,97707.38
2022-11-05T23:50:50.877Z,97715.28
2022-11-05T23:53:21.083Z,97713.63
2022-11-05T23:55:50.095Z,97701.50
2022-11-05T23:58:18.914Z,97696.13
